Mesa Verde National Park, Colorado
Current Conditions -  °F | °C
As of 3:53 PM on Wednesday 22 Oct 2014 (Local Time) from KCEZ Reporting Station
Clear Clear  
Wind Chill: 68°   Ceiling: Unl
Heat Index: 68°   Visibility: 10mi
Dew Point: 35°   Wind: 9mph
Humidity: 30%   Direction: 300°WNW
Pressure: 30.17"   Gusts: 18mph
Location:  37.1877°N, 108.492°W
Report Text: KCEZ 222153Z AUTO 30008G16KT 10SM CLR 20/02 A3017 RMK AO2 SLP168 T02000017
Loading
Personal Weather Stations






























Interactive Weather Map
Tropical Storm Tracking
New forecast layout! Learn more

10-Day Weather Forecast

Advertisements
Track Severe Weather on mobile